createdAt,value
2022-10-21T00:01:50.328Z,16.40
2022-10-21T00:04:21.369Z,16.30
2022-10-21T00:06:52.435Z,16.30
2022-10-21T00:09:23.694Z,16.30
2022-10-21T00:11:55.972Z,16.20
2022-10-21T00:14:28.248Z,16.30
2022-10-21T00:17:04.446Z,16.20
2022-10-21T00:19:35.412Z,16.20
2022-10-21T00:22:06.605Z,16.10
2022-10-21T00:24:39.512Z,16.00
2022-10-21T00:27:10.441Z,16.00
2022-10-21T00:29:42.384Z,16.00
2022-10-21T00:32:15.452Z,16.00
2022-10-21T00:34:47.970Z,16.00
2022-10-21T00:37:20.318Z,16.10
2022-10-21T00:39:51.867Z,16.10
2022-10-21T00:42:25.597Z,16.00
2022-10-21T00:45:22.923Z,16.00
2022-10-21T00:47:59.389Z,15.90
2022-10-21T00:50:38.840Z,15.90
2022-10-21T00:53:17.459Z,15.90
2022-10-21T00:55:54.160Z,16.00
2022-10-21T00:58:29.613Z,15.80
2022-10-21T01:01:02.563Z,15.80
2022-10-21T01:03:37.509Z,15.80
2022-10-21T01:06:12.816Z,15.80
2022-10-21T01:08:44.127Z,15.80
2022-10-21T01:11:18.829Z,15.80
2022-10-21T01:14:07.105Z,15.70
2022-10-21T01:16:49.495Z,15.70
2022-10-21T01:19:41.925Z,15.70
2022-10-21T01:22:30.830Z,15.70
2022-10-21T01:25:23.748Z,15.70
2022-10-21T01:28:01.092Z,15.70
2022-10-21T01:30:40.454Z,15.70
2022-10-21T01:33:44.955Z,15.70
2022-10-21T01:36:34.679Z,15.60
2022-10-21T01:39:18.583Z,15.60
2022-10-21T01:41:58.194Z,15.60
2022-10-21T01:44:37.874Z,15.50
2022-10-21T01:47:19.669Z,15.50
2022-10-21T01:49:56.112Z,15.50
2022-10-21T01:52:28.020Z,15.50
2022-10-21T01:55:04.779Z,15.50
2022-10-21T01:57:42.014Z,15.50
2022-10-21T02:00:14.064Z,15.50
2022-10-21T02:02:51.643Z,15.50
2022-10-21T02:05:25.498Z,15.50
2022-10-21T02:07:57.941Z,15.50
2022-10-21T02:10:33.113Z,15.50
2022-10-21T02:13:07.463Z,15.50
2022-10-21T02:15:40.137Z,15.50
2022-10-21T02:18:21.975Z,15.50
2022-10-21T02:20:58.325Z,15.50
2022-10-21T02:23:37.380Z,15.50
2022-10-21T02:26:08.467Z,15.50
2022-10-21T02:31:22.756Z,15.40
2022-10-21T02:34:07.809Z,15.30
2022-10-21T02:36:48.631Z,15.30
2022-10-21T02:39:26.752Z,15.30
2022-10-21T02:42:00.316Z,15.30
2022-10-21T02:44:32.339Z,15.30
2022-10-21T02:47:03.515Z,15.30
2022-10-21T02:49:39.545Z,15.30
2022-10-21T02:52:12.669Z,15.20
2022-10-21T02:54:44.163Z,15.10
2022-10-21T02:57:15.815Z,15.10
2022-10-21T02:59:47.593Z,15.10
2022-10-21T03:02:18.727Z,15.10
2022-10-21T03:04:55.335Z,15.10
2022-10-21T03:07:26.929Z,15.10
2022-10-21T03:09:59.048Z,15.10
2022-10-21T03:12:31.400Z,15.00
2022-10-21T03:15:03.372Z,15.00
2022-10-21T03:17:36.151Z,15.00
2022-10-21T03:20:13.111Z,14.90
2022-10-21T03:22:45.531Z,14.90
2022-10-21T03:25:19.385Z,14.90
2022-10-21T03:28:03.854Z,14.80
2022-10-21T03:30:38.356Z,14.80
2022-10-21T03:33:12.119Z,14.70
2022-10-21T03:35:47.355Z,14.70
2022-10-21T03:38:19.744Z,14.60
2022-10-21T03:40:51.197Z,14.60
2022-10-21T03:43:23.604Z,14.70
2022-10-21T03:45:55.537Z,14.70
2022-10-21T03:48:26.968Z,14.70
2022-10-21T03:51:02.564Z,14.80
2022-10-21T03:53:48.560Z,14.80
2022-10-21T03:56:19.785Z,14.80
2022-10-21T03:58:53.928Z,14.80
2022-10-21T04:01:27.977Z,14.80
2022-10-21T04:03:59.905Z,14.80
2022-10-21T04:06:43.836Z,14.80
2022-10-21T04:09:16.676Z,14.80
2022-10-21T04:11:47.795Z,14.80
2022-10-21T04:14:19.089Z,14.80
2022-10-21T04:17:02.070Z,14.80
2022-10-21T04:19:33.566Z,14.80
2022-10-21T04:22:09.544Z,14.70
2022-10-21T04:24:43.000Z,14.70
2022-10-21T04:27:14.208Z,14.70
2022-10-21T04:29:47.647Z,14.70
2022-10-21T04:32:19.803Z,14.70
2022-10-21T04:34:52.116Z,14.70
2022-10-21T04:37:26.518Z,14.70
2022-10-21T04:40:04.369Z,14.70
2022-10-21T04:42:38.278Z,14.70
2022-10-21T04:45:10.931Z,14.60
2022-10-21T04:47:42.962Z,14.60
2022-10-21T04:50:14.937Z,14.60
2022-10-21T04:52:50.262Z,14.50
2022-10-21T04:55:22.700Z,14.50
2022-10-21T04:57:54.234Z,14.60
2022-10-21T05:00:26.257Z,14.60
2022-10-21T05:02:57.716Z,14.60
2022-10-21T05:05:31.032Z,14.60
2022-10-21T05:08:11.495Z,14.60
2022-10-21T05:10:44.335Z,14.60
2022-10-21T05:13:16.363Z,14.50
2022-10-21T05:15:49.773Z,14.50
2022-10-21T05:18:21.755Z,14.50
2022-10-21T05:20:57.641Z,14.50
2022-10-21T05:23:32.653Z,14.40
2022-10-21T05:26:04.247Z,14.40
2022-10-21T05:28:35.738Z,14.40
2022-10-21T05:31:06.873Z,14.30
2022-10-21T05:33:45.800Z,14.30
2022-10-21T05:36:18.522Z,14.20
2022-10-21T05:41:59.409Z,14.20
2022-10-21T05:44:32.440Z,14.10
2022-10-21T05:47:04.988Z,14.10
2022-10-21T05:49:37.062Z,14.10
2022-10-21T05:52:10.353Z,14.10
2022-10-21T05:54:44.991Z,14.10
2022-10-21T05:57:19.801Z,14.10
2022-10-21T05:59:51.240Z,14.10
2022-10-21T06:02:23.965Z,14.10
2022-10-21T06:04:56.135Z,14.00
2022-10-21T06:07:29.233Z,14.00
2022-10-21T06:10:04.271Z,14.00
2022-10-21T06:12:37.889Z,14.00
2022-10-21T06:15:10.237Z,14.10
2022-10-21T06:17:42.002Z,14.10
2022-10-21T06:20:14.570Z,14.10
2022-10-21T06:22:47.297Z,14.20
2022-10-21T06:25:25.350Z,14.20
2022-10-21T06:27:57.270Z,14.20
2022-10-21T06:30:29.341Z,14.20
2022-10-21T06:33:00.346Z,14.20
2022-10-21T06:35:31.647Z,14.20
2022-10-21T06:38:03.130Z,14.20
2022-10-21T06:40:38.382Z,14.10
2022-10-21T06:43:12.334Z,14.00
2022-10-21T06:45:46.302Z,13.90
2022-10-21T06:48:19.394Z,13.90
2022-10-21T06:50:52.217Z,13.90
2022-10-21T06:53:27.451Z,13.90
2022-10-21T06:56:09.114Z,13.90
2022-10-21T06:58:44.676Z,13.80
2022-10-21T07:01:34.394Z,13.80
2022-10-21T07:04:15.340Z,13.80
2022-10-21T07:06:47.858Z,13.80
2022-10-21T07:09:19.459Z,13.80
2022-10-21T07:11:53.761Z,13.80
2022-10-21T07:14:30.055Z,13.70
2022-10-21T07:17:01.448Z,13.70
2022-10-21T07:19:33.013Z,13.60
2022-10-21T07:22:04.206Z,13.60
2022-10-21T07:24:35.978Z,13.70
2022-10-21T07:27:09.502Z,13.50
2022-10-21T07:29:41.597Z,13.50
2022-10-21T07:32:13.326Z,13.50
2022-10-21T07:34:44.443Z,13.50
2022-10-21T07:37:15.976Z,13.40
2022-10-21T07:39:47.584Z,13.40
2022-10-21T07:42:23.335Z,13.40
2022-10-21T07:45:00.406Z,13.40
2022-10-21T07:47:33.731Z,13.20
2022-10-21T07:50:05.684Z,13.10
2022-10-21T07:52:41.799Z,13.00
2022-10-21T07:55:22.145Z,12.90
2022-10-21T07:57:58.250Z,12.90
2022-10-21T08:00:29.536Z,12.90
2022-10-21T08:03:03.910Z,12.80
2022-10-21T08:05:36.032Z,12.80
2022-10-21T08:08:09.351Z,12.70
2022-10-21T08:10:45.057Z,12.70
2022-10-21T08:13:19.356Z,12.60
2022-10-21T08:15:53.633Z,12.50
2022-10-21T08:18:28.192Z,12.40
2022-10-21T08:20:59.384Z,12.30
2022-10-21T08:23:31.449Z,12.30
2022-10-21T08:26:10.351Z,12.20
2022-10-21T08:28:44.493Z,12.10
2022-10-21T08:31:18.291Z,12.00
2022-10-21T08:33:49.710Z,12.00
2022-10-21T08:36:24.034Z,12.00
2022-10-21T08:38:55.901Z,12.00
2022-10-21T08:41:52.237Z,11.90
2022-10-21T08:44:37.554Z,11.90
2022-10-21T08:47:16.869Z,12.00
2022-10-21T08:49:59.857Z,12.00
2022-10-21T08:52:39.402Z,12.00
2022-10-21T08:55:17.629Z,12.00
2022-10-21T08:57:51.946Z,12.10
2022-10-21T09:00:30.551Z,12.10
2022-10-21T09:03:15.821Z,12.10
2022-10-21T09:06:16.884Z,12.10
2022-10-21T09:08:58.968Z,12.10
2022-10-21T09:11:57.552Z,12.20
2022-10-21T09:14:51.190Z,12.20
2022-10-21T09:17:45.138Z,12.20
2022-10-21T09:20:29.702Z,12.20
2022-10-21T09:23:15.933Z,12.00
2022-10-21T09:25:56.267Z,12.00
2022-10-21T09:28:29.254Z,12.00
2022-10-21T09:31:03.997Z,11.90
2022-10-21T09:33:40.380Z,11.90
2022-10-21T09:36:16.917Z,11.90
2022-10-21T09:38:53.647Z,11.90
2022-10-21T09:41:31.747Z,11.90
2022-10-21T09:44:03.500Z,11.80
2022-10-21T09:46:35.096Z,11.70
2022-10-21T09:49:47.306Z,11.70
2022-10-21T09:52:03.703Z,11.70
2022-10-21T09:54:38.501Z,11.70
2022-10-21T09:57:17.562Z,11.70
2022-10-21T09:59:56.687Z,11.70
2022-10-21T10:02:34.416Z,11.70
2022-10-21T10:05:38.888Z,11.70
2022-10-21T10:08:32.775Z,11.80
2022-10-21T10:11:15.079Z,11.70
2022-10-21T10:13:48.950Z,11.80
2022-10-21T10:16:27.154Z,11.80
2022-10-21T10:19:20.787Z,11.80
2022-10-21T10:22:13.273Z,11.80
2022-10-21T10:24:45.137Z,11.70
2022-10-21T10:27:21.001Z,11.60
2022-10-21T10:29:59.394Z,11.60
2022-10-21T10:32:35.371Z,11.50
2022-10-21T10:35:09.582Z,11.50
2022-10-21T10:40:26.008Z,11.50
2022-10-21T10:43:06.804Z,11.40
2022-10-21T10:45:38.813Z,11.40
2022-10-21T10:48:10.233Z,11.40
2022-10-21T10:50:46.542Z,11.30
2022-10-21T10:53:32.694Z,11.40
2022-10-21T10:56:24.328Z,11.30
2022-10-21T10:59:01.614Z,11.40
2022-10-21T11:01:40.286Z,11.40
2022-10-21T11:04:20.052Z,11.40
2022-10-21T11:07:01.747Z,11.40
2022-10-21T11:09:36.890Z,11.40
2022-10-21T11:12:15.665Z,11.30
2022-10-21T11:14:48.414Z,11.20
2022-10-21T11:17:23.287Z,11.20
2022-10-21T11:20:04.612Z,11.20
2022-10-21T11:22:47.405Z,11.10
2022-10-21T11:25:29.540Z,11.20
2022-10-21T11:28:19.589Z,11.30
2022-10-21T11:31:12.414Z,11.20
2022-10-21T11:33:50.060Z,11.20
2022-10-21T11:36:29.434Z,11.20
2022-10-21T11:39:34.541Z,11.30
2022-10-21T11:42:17.044Z,11.20
2022-10-21T11:45:16.547Z,11.30
2022-10-21T11:47:53.641Z,11.30
2022-10-21T11:50:34.206Z,11.40
2022-10-21T11:53:28.693Z,11.40
2022-10-21T11:56:10.543Z,11.30
2022-10-21T11:58:52.811Z,11.30
2022-10-21T12:01:41.614Z,11.20
2022-10-21T12:04:33.171Z,11.20
2022-10-21T12:07:18.598Z,11.10
2022-10-21T12:09:56.842Z,11.10
2022-10-21T12:12:37.466Z,11.10
2022-10-21T12:15:20.125Z,11.10
2022-10-21T12:17:52.923Z,11.20
2022-10-21T12:20:26.100Z,11.20
2022-10-21T12:23:02.622Z,11.10
2022-10-21T12:25:44.825Z,11.10
2022-10-21T12:28:22.977Z,11.10
2022-10-21T12:31:03.268Z,11.10
2022-10-21T12:33:41.222Z,11.10
2022-10-21T12:36:42.036Z,11.10
2022-10-21T12:39:19.511Z,11.10
2022-10-21T12:41:51.400Z,11.10
2022-10-21T12:44:27.747Z,11.10
2022-10-21T12:47:14.721Z,11.10
2022-10-21T12:49:50.106Z,11.00
2022-10-21T12:52:28.774Z,11.10
2022-10-21T12:55:03.765Z,11.00
2022-10-21T12:57:41.962Z,11.00
2022-10-21T13:01:13.206Z,10.90
2022-10-21T13:04:37.718Z,10.90
2022-10-21T13:07:39.946Z,10.90
2022-10-21T13:10:29.225Z,10.90
2022-10-21T13:13:33.094Z,11.00
2022-10-21T13:16:32.937Z,10.90
2022-10-21T13:19:07.522Z,11.00
2022-10-21T13:21:53.877Z,11.00
2022-10-21T13:24:41.560Z,10.90
2022-10-21T13:27:59.542Z,10.90
2022-10-21T13:30:35.396Z,10.80
2022-10-21T13:33:08.316Z,10.80
2022-10-21T13:35:48.210Z,10.90
2022-10-21T13:38:27.817Z,10.90
2022-10-21T13:41:10.870Z,10.80
2022-10-21T13:43:52.665Z,10.80
2022-10-21T13:46:27.737Z,10.80
2022-10-21T13:49:01.543Z,10.80
2022-10-21T13:51:34.487Z,10.90
2022-10-21T13:54:10.993Z,10.90
2022-10-21T13:56:49.096Z,10.90
2022-10-21T13:59:27.371Z,10.90
2022-10-21T14:02:00.355Z,10.90
2022-10-21T14:04:33.460Z,11.00
2022-10-21T14:07:07.490Z,11.00
2022-10-21T14:09:44.150Z,11.00
2022-10-21T14:12:41.568Z,10.80
2022-10-21T14:15:23.340Z,10.80
2022-10-21T14:17:59.109Z,10.80
2022-10-21T14:20:35.905Z,10.80
2022-10-21T14:23:09.407Z,10.80
2022-10-21T14:25:45.365Z,10.80
2022-10-21T14:28:37.380Z,10.80
2022-10-21T14:31:13.614Z,10.70
2022-10-21T14:33:46.821Z,10.80
2022-10-21T14:36:46.405Z,10.80
2022-10-21T14:39:37.364Z,10.70
2022-10-21T14:42:20.043Z,10.60
2022-10-21T14:44:58.181Z,10.70
2022-10-21T14:47:33.270Z,10.70
2022-10-21T14:50:07.012Z,10.80
2022-10-21T14:52:47.198Z,10.80
2022-10-21T14:55:21.952Z,10.80
2022-10-21T14:57:56.114Z,10.80
2022-10-21T15:00:32.802Z,10.80
2022-10-21T15:03:06.259Z,10.90
2022-10-21T15:05:43.992Z,10.90
2022-10-21T15:08:33.197Z,10.90
2022-10-21T15:11:27.206Z,11.00
2022-10-21T15:14:04.960Z,11.00
2022-10-21T15:16:40.770Z,11.00
2022-10-21T15:19:22.930Z,11.10
2022-10-21T15:22:01.122Z,11.10
2022-10-21T15:24:46.143Z,11.20
2022-10-21T15:27:21.823Z,11.20
2022-10-21T15:29:55.121Z,11.20
2022-10-21T15:32:30.545Z,11.20
2022-10-21T15:35:03.074Z,11.20
2022-10-21T15:37:52.577Z,11.10
2022-10-21T15:53:59.036Z,10.60
2022-10-21T15:56:32.693Z,10.50
2022-10-21T15:59:03.730Z,10.40
2022-10-21T16:01:35.313Z,10.30
2022-10-21T16:04:06.424Z,10.30
2022-10-21T16:06:40.627Z,10.20
2022-10-21T16:09:21.011Z,10.20
2022-10-21T16:12:00.427Z,10.30
2022-10-21T16:14:32.660Z,10.30
2022-10-21T16:17:04.285Z,10.40
2022-10-21T16:19:36.409Z,10.50
2022-10-21T16:22:14.419Z,10.50
2022-10-21T16:24:46.948Z,10.40
2022-10-21T16:27:26.567Z,10.30
2022-10-21T16:30:02.990Z,10.30
2022-10-21T16:32:34.503Z,10.30
2022-10-21T16:35:05.491Z,10.20
2022-10-21T16:37:37.703Z,10.20
2022-10-21T16:40:20.456Z,10.00
2022-10-21T16:42:55.277Z,10.00
2022-10-21T16:45:30.923Z,10.00
2022-10-21T16:48:04.030Z,10.00
2022-10-21T16:50:40.493Z,10.00
2022-10-21T16:53:16.057Z,9.90
2022-10-21T16:55:47.199Z,9.90
2022-10-21T16:58:21.661Z,9.90
2022-10-21T17:00:53.565Z,9.90
2022-10-21T17:03:25.650Z,9.90
2022-10-21T17:05:57.300Z,9.80
2022-10-21T17:08:28.855Z,9.80
2022-10-21T17:11:00.509Z,9.80
2022-10-21T17:13:33.947Z,9.80
2022-10-21T17:16:06.502Z,9.80
2022-10-21T17:18:37.948Z,9.80
2022-10-21T17:21:11.341Z,9.80
2022-10-21T17:23:42.941Z,9.80
2022-10-21T17:26:14.784Z,9.80
2022-10-21T17:28:50.006Z,9.80
2022-10-21T17:31:23.493Z,9.80
2022-10-21T17:33:55.984Z,9.80
2022-10-21T17:36:27.741Z,9.80
2022-10-21T17:38:58.860Z,9.90
2022-10-21T17:41:30.450Z,9.90
2022-10-21T17:44:04.281Z,9.90
2022-10-21T17:46:35.829Z,10.00
2022-10-21T17:49:07.348Z,10.10
2022-10-21T17:51:39.185Z,10.10
2022-10-21T17:54:10.827Z,10.10
2022-10-21T17:56:42.627Z,10.10
2022-10-21T17:59:16.093Z,10.20
2022-10-21T18:01:48.257Z,10.30
2022-10-21T18:04:36.686Z,10.30
2022-10-21T18:07:09.857Z,10.40
2022-10-21T18:09:42.767Z,10.30
2022-10-21T18:12:14.612Z,10.50
2022-10-21T18:14:48.628Z,10.50
2022-10-21T18:17:19.724Z,10.40
2022-10-21T18:19:52.236Z,10.30
2022-10-21T18:22:24.147Z,10.30
2022-10-21T18:24:55.690Z,10.40
2022-10-21T18:27:26.802Z,10.40
2022-10-21T18:30:00.953Z,10.40
2022-10-21T18:32:33.338Z,10.40
2022-10-21T18:35:05.700Z,10.40
2022-10-21T18:37:37.536Z,10.40
2022-10-21T18:40:10.464Z,10.30
2022-10-21T18:42:42.926Z,10.30
2022-10-21T18:45:17.692Z,10.40
2022-10-21T18:47:49.334Z,10.40
2022-10-21T18:50:21.132Z,10.50
2022-10-21T18:52:52.515Z,10.60
2022-10-21T18:55:24.123Z,10.70
2022-10-21T18:57:57.106Z,10.60
2022-10-21T19:00:30.664Z,10.70
2022-10-21T19:03:01.673Z,10.80
2022-10-21T19:05:34.411Z,10.90
2022-10-21T19:08:05.891Z,11.10
2022-10-21T19:10:40.648Z,11.20
2022-10-21T19:13:12.093Z,11.20
2022-10-21T19:15:47.872Z,11.20
2022-10-21T19:18:19.535Z,11.10
2022-10-21T19:20:51.513Z,11.10
2022-10-21T19:23:22.749Z,11.20
2022-10-21T19:25:53.769Z,11.30
2022-10-21T19:28:27.284Z,11.30
2022-10-21T19:31:00.701Z,11.30
2022-10-21T19:33:33.374Z,11.00
2022-10-21T19:36:06.494Z,10.90
2022-10-21T19:38:44.317Z,11.00
2022-10-21T19:41:19.969Z,11.00
2022-10-21T19:43:52.690Z,11.00
2022-10-21T19:46:29.981Z,11.00
2022-10-21T19:49:04.314Z,11.10
2022-10-21T19:51:36.915Z,11.20
2022-10-21T19:54:09.275Z,11.00
2022-10-21T19:56:41.096Z,10.70
2022-10-21T19:59:13.382Z,10.60
2022-10-21T20:01:46.609Z,10.50
2022-10-21T20:04:18.578Z,10.20
2022-10-21T20:06:49.593Z,10.20
2022-10-21T20:09:22.169Z,10.20
2022-10-21T20:11:53.225Z,10.10
2022-10-21T20:14:24.431Z,10.10
2022-10-21T20:16:59.307Z,10.20
2022-10-21T20:19:31.311Z,10.00
2022-10-21T20:22:02.962Z,10.10
2022-10-21T20:24:34.857Z,10.00
2022-10-21T20:27:06.109Z,9.90
2022-10-21T20:29:37.762Z,10.00
2022-10-21T20:32:11.054Z,9.90
2022-10-21T20:34:44.333Z,10.00
2022-10-21T20:37:15.575Z,10.00
2022-10-21T20:39:46.912Z,10.10
2022-10-21T20:42:18.170Z,10.10
2022-10-21T20:44:49.092Z,10.10
2022-10-21T20:47:24.573Z,10.10
2022-10-21T20:49:57.565Z,10.20
2022-10-21T20:52:28.992Z,10.20
2022-10-21T20:55:00.022Z,10.20
2022-10-21T20:57:32.525Z,10.10
2022-10-21T21:00:06.163Z,10.20
2022-10-21T21:02:40.654Z,10.30
2022-10-21T21:05:14.355Z,10.40
2022-10-21T21:07:45.932Z,10.30
2022-10-21T21:10:18.719Z,10.40
2022-10-21T21:12:49.990Z,10.40
2022-10-21T21:15:26.600Z,10.40
2022-10-21T21:18:03.092Z,10.30
2022-10-21T21:20:35.673Z,10.20
2022-10-21T21:23:06.798Z,10.30
2022-10-21T21:25:38.174Z,10.20
2022-10-21T21:28:09.296Z,10.30
2022-10-21T21:30:40.918Z,10.40
2022-10-21T21:33:15.267Z,10.60
2022-10-21T21:35:47.046Z,10.50
2022-10-21T21:38:18.083Z,10.40
2022-10-21T21:40:49.785Z,10.40
2022-10-21T21:43:24.259Z,10.40
2022-10-21T21:45:55.798Z,10.40
2022-10-21T21:48:30.200Z,10.30
2022-10-21T21:51:06.288Z,10.20
2022-10-21T21:53:37.381Z,10.30
2022-10-21T21:56:10.213Z,10.40
2022-10-21T21:58:42.641Z,10.50
2022-10-21T22:01:14.928Z,10.30
2022-10-21T22:03:50.064Z,10.10
2022-10-21T22:08:55.463Z,10.30
2022-10-21T22:11:28.892Z,10.20
2022-10-21T22:14:00.758Z,10.10
2022-10-21T22:16:33.029Z,10.10
2022-10-21T22:19:08.211Z,10.00
2022-10-21T22:21:39.724Z,9.90
2022-10-21T22:24:10.952Z,9.90
2022-10-21T22:26:42.581Z,9.80
2022-10-21T22:29:13.706Z,9.70
2022-10-21T22:31:45.304Z,9.60
2022-10-21T22:34:19.236Z,9.50
2022-10-21T22:36:50.381Z,9.40
2022-10-21T22:39:22.351Z,9.30
2022-10-21T22:41:53.450Z,9.20
2022-10-21T22:44:24.624Z,9.10
2022-10-21T22:46:55.956Z,9.00
2022-10-21T22:49:29.321Z,9.10
2022-10-21T22:52:00.564Z,9.30
2022-10-21T22:54:48.686Z,9.20
2022-10-21T22:57:21.434Z,9.20
2022-10-21T22:59:53.556Z,9.00
2022-10-21T23:02:24.709Z,8.90
2022-10-21T23:04:58.274Z,9.10
2022-10-21T23:07:29.408Z,9.10
2022-10-21T23:10:00.528Z,9.00
2022-10-21T23:12:31.753Z,8.90
2022-10-21T23:15:02.605Z,8.80
2022-10-21T23:17:34.349Z,8.80
2022-10-21T23:20:07.395Z,8.70
2022-10-21T23:22:39.324Z,8.70
2022-10-21T23:25:10.931Z,8.60
2022-10-21T23:27:41.799Z,8.60
2022-10-21T23:30:13.380Z,8.60
2022-10-21T23:32:44.128Z,8.60
2022-10-21T23:35:17.293Z,8.70
2022-10-21T23:37:48.749Z,8.70
2022-10-21T23:40:21.842Z,8.60
2022-10-21T23:42:53.360Z,8.60
2022-10-21T23:45:24.509Z,8.70
2022-10-21T23:47:55.573Z,8.70
2022-10-21T23:50:28.779Z,8.60
2022-10-21T23:52:59.996Z,8.60
2022-10-21T23:58:04.445Z,8.70
